Aérodrome :
LOGIN :

S'inscrire | Disclaimer

   EN    FR    IT 

 










Légende :    VFR   VFR Marginal   IFR   IFR Intensif   IFR Très Intensif
Visi : 
Plafond : 
>= 8 km
>= 3000ft
5 à 8 km
1000 à 3000 ft
1500m à 5 km
500 à 1000 ft
800 à 1500m
200 à 500 ft
< 800m
< 200 ft
Symboles :   Orages  Brouillard  Fortes neiges  Fortes précipitations  Vent > 20 kt
SIGMETs :   Divers  Orages  Givrage  Turbulence  Onde Orograph.  Cendres Volcan.







- Altitude de l'aérodrome : 821 ft
- Code IATA : LYS
- Voir les cartes d'approche


LFLL - Lyon St Exupéry / Satolas

DERNIER METAR :
  • 230330Z 00000KT CAVOK 19/12 Q1016 NOSIG

METARs EXPIRÉS :
  • 230300Z 01002KT CAVOK 18/12 Q1016 NOSIG
  • 230230Z 02006KT CAVOK 19/12 Q1016 NOSIG
  • 230200Z 34005KT CAVOK 19/12 Q1016 NOSIG
  • 230130Z 35003KT CAVOK 19/12 Q1016 NOSIG
  • 230100Z 36004KT CAVOK 20/12 Q1016 NOSIG

TAF TAF LFLL
Valide du 23 à 00h jusqu'au 24 à 06h UTC


222300Z 2300/2406 34005KT CAVOK
TEMPO 2309/2318 36013KT
Pas de NOTAMs connus pour ce terrain.
1 SIGMET publié pour la FIR Marseille (LFMM) :
 
Orages noyés dans la masse
LFMM SIGMET 1 VALID 230000/230400 LFPW
LFMM MARSEILLE FIR/UIR EMBD TS OBS AT 0000Z WI N4315 E00915 - N4315 E00945 - N4145 E00945 - N4200 E00715 - N4315 E00730 - N4315 E00915 TOP FL380 MOV S 10KT NC=



MET'MAP, la Météo Aéronautique d'un coup d'oeil ! - Copyright ORBIFLY Décembre 2007 - Disclaimer

ORBIFLY MET'MAP TEAM :

Programmation & Développement : Alexandra Zaïnal
Conception & Développement : Baudouin d'Aumeries
Co-Programmation & Développement : Marc-Olivier Méhu
Soutien technique & logistique : Manuel Goepfert

Contact : metmap@orbifly.com




SOURCES & CREDITS :

   NOAA